sensor_id;sensor_type;location;lat;lon;timestamp;temperature;humidity
47604;DHT22;33326;51.116;6.900;2022-10-03T00:07:02;12.20;99.90
47604;DHT22;33326;51.116;6.900;2022-10-03T00:12:14;12.10;99.90
47604;DHT22;33326;51.116;6.900;2022-10-03T00:17:26;12.10;99.90
47604;DHT22;33326;51.116;6.900;2022-10-03T00:22:36;12.00;99.90
47604;DHT22;33326;51.116;6.900;2022-10-03T00:27:45;12.00;99.90
47604;DHT22;33326;51.116;6.900;2022-10-03T00:33:02;11.90;99.90
47604;DHT22;33326;51.116;6.900;2022-10-03T00:38:19;12.00;99.90
47604;DHT22;33326;51.116;6.900;2022-10-03T00:49:46;11.80;99.90
47604;DHT22;33326;51.116;6.900;2022-10-03T00:55:02;11.70;99.90
47604;DHT22;33326;51.116;6.900;2022-10-03T01:00:19;11.70;99.90
47604;DHT22;33326;51.116;6.900;2022-10-03T01:05:33;11.60;99.90
47604;DHT22;33326;51.116;6.900;2022-10-03T01:10:44;11.50;99.90
47604;DHT22;33326;51.116;6.900;2022-10-03T01:15:54;11.60;99.90
47604;DHT22;33326;51.116;6.900;2022-10-03T01:21:09;11.40;99.90
47604;DHT22;33326;51.116;6.900;2022-10-03T01:26:26;11.40;99.90
47604;DHT22;33326;51.116;6.900;2022-10-03T01:31:41;11.40;99.90
47604;DHT22;33326;51.116;6.900;2022-10-03T01:36:52;11.30;99.90
47604;DHT22;33326;51.116;6.900;2022-10-03T01:41:58;11.30;99.90
47604;DHT22;33326;51.116;6.900;2022-10-03T01:47:16;11.30;99.90
47604;DHT22;33326;51.116;6.900;2022-10-03T01:52:27;11.20;99.90
47604;DHT22;33326;51.116;6.900;2022-10-03T01:57:38;11.20;99.90
47604;DHT22;33326;51.116;6.900;2022-10-03T02:02:48;11.10;99.90
47604;DHT22;33326;51.116;6.900;2022-10-03T02:07:57;11.00;99.90
47604;DHT22;33326;51.116;6.900;2022-10-03T02:13:06;11.00;99.90
47604;DHT22;33326;51.116;6.900;2022-10-03T02:18:16;10.90;99.90
47604;DHT22;33326;51.116;6.900;2022-10-03T02:23:25;10.90;99.90
47604;DHT22;33326;51.116;6.900;2022-10-03T02:28:53;10.90;99.90
47604;DHT22;33326;51.116;6.900;2022-10-03T02:34:24;10.80;99.90
47604;DHT22;33326;51.116;6.900;2022-10-03T02:51:15;10.70;99.90
47604;DHT22;33326;51.116;6.900;2022-10-03T03:02:16;10.60;99.90
47604;DHT22;33326;51.116;6.900;2022-10-03T03:07:38;10.60;99.90
47604;DHT22;33326;51.116;6.900;2022-10-03T03:18:32;10.60;99.90
47604;DHT22;33326;51.116;6.900;2022-10-03T03:23:48;10.60;99.90
47604;DHT22;33326;51.116;6.900;2022-10-03T03:29:01;10.50;99.90
47604;DHT22;33326;51.116;6.900;2022-10-03T03:34:13;10.50;99.90
47604;DHT22;33326;51.116;6.900;2022-10-03T03:39:45;10.50;99.90
47604;DHT22;33326;51.116;6.900;2022-10-03T03:45:07;10.60;99.90
47604;DHT22;33326;51.116;6.900;2022-10-03T03:50:28;10.60;99.90
47604;DHT22;33326;51.116;6.900;2022-10-03T03:55:42;10.80;99.90
47604;DHT22;33326;51.116;6.900;2022-10-03T04:01:00;10.80;99.90
47604;DHT22;33326;51.116;6.900;2022-10-03T04:06:17;10.90;99.90
47604;DHT22;33326;51.116;6.900;2022-10-03T04:11:30;10.90;99.90
47604;DHT22;33326;51.116;6.900;2022-10-03T04:16:38;10.80;99.90
47604;DHT22;33326;51.116;6.900;2022-10-03T04:22:17;10.60;99.90
47604;DHT22;33326;51.116;6.900;2022-10-03T04:33:11;10.40;99.90
47604;DHT22;33326;51.116;6.900;2022-10-03T04:38:19;10.40;99.90
47604;DHT22;33326;51.116;6.900;2022-10-03T04:43:34;10.50;99.90
47604;DHT22;33326;51.116;6.900;2022-10-03T04:48:45;10.70;99.90
47604;DHT22;33326;51.116;6.900;2022-10-03T04:53:56;10.70;99.90
47604;DHT22;33326;51.116;6.900;2022-10-03T04:59:10;10.70;99.90
47604;DHT22;33326;51.116;6.900;2022-10-03T05:04:27;10.70;99.90
47604;DHT22;33326;51.116;6.900;2022-10-03T05:09:38;10.80;99.90
47604;DHT22;33326;51.116;6.900;2022-10-03T05:14:56;10.90;99.90
47604;DHT22;33326;51.116;6.900;2022-10-03T05:20:19;11.00;99.90
47604;DHT22;33326;51.116;6.900;2022-10-03T05:25:37;11.10;99.90
47604;DHT22;33326;51.116;6.900;2022-10-03T05:30:46;11.00;99.90
47604;DHT22;33326;51.116;6.900;2022-10-03T05:36:05;11.10;99.90
47604;DHT22;33326;51.116;6.900;2022-10-03T05:41:17;11.10;99.90
47604;DHT22;33326;51.116;6.900;2022-10-03T05:46:40;11.20;99.90
47604;DHT22;33326;51.116;6.900;2022-10-03T05:52:04;11.20;99.90
47604;DHT22;33326;51.116;6.900;2022-10-03T05:57:32;11.30;99.90
47604;DHT22;33326;51.116;6.900;2022-10-03T06:08:40;11.50;99.90
47604;DHT22;33326;51.116;6.900;2022-10-03T06:14:13;11.50;99.90
47604;DHT22;33326;51.116;6.900;2022-10-03T06:19:32;11.50;99.90
47604;DHT22;33326;51.116;6.900;2022-10-03T06:30:20;11.40;99.90
47604;DHT22;33326;51.116;6.900;2022-10-03T06:41:31;11.50;99.90
47604;DHT22;33326;51.116;6.900;2022-10-03T06:46:49;11.60;99.90
47604;DHT22;33326;51.116;6.900;2022-10-03T06:52:09;11.70;99.90
47604;DHT22;33326;51.116;6.900;2022-10-03T06:57:23;11.80;99.90
47604;DHT22;33326;51.116;6.900;2022-10-03T07:03:00;11.80;99.90
47604;DHT22;33326;51.116;6.900;2022-10-03T07:14:05;12.10;99.90
47604;DHT22;33326;51.116;6.900;2022-10-03T07:19:45;12.20;99.90
47604;DHT22;33326;51.116;6.900;2022-10-03T07:25:15;12.30;99.90
47604;DHT22;33326;51.116;6.900;2022-10-03T07:30:30;12.40;99.90
47604;DHT22;33326;51.116;6.900;2022-10-03T07:35:44;12.40;99.90
47604;DHT22;33326;51.116;6.900;2022-10-03T07:41:20;12.50;99.90
47604;DHT22;33326;51.116;6.900;2022-10-03T07:52:42;13.00;99.90
47604;DHT22;33326;51.116;6.900;2022-10-03T07:58:20;13.20;99.90
47604;DHT22;33326;51.116;6.900;2022-10-03T08:04:03;13.10;99.90
47604;DHT22;33326;51.116;6.900;2022-10-03T08:09:38;13.40;99.90
47604;DHT22;33326;51.116;6.900;2022-10-03T08:14:54;13.70;99.90
47604;DHT22;33326;51.116;6.900;2022-10-03T08:20:21;13.50;99.90
47604;DHT22;33326;51.116;6.900;2022-10-03T08:25:45;13.60;99.90
47604;DHT22;33326;51.116;6.900;2022-10-03T08:31:14;13.70;99.90
47604;DHT22;33326;51.116;6.900;2022-10-03T08:36:41;13.60;99.90
47604;DHT22;33326;51.116;6.900;2022-10-03T08:48:00;13.90;99.90
47604;DHT22;33326;51.116;6.900;2022-10-03T08:53:38;14.00;99.90
47604;DHT22;33326;51.116;6.900;2022-10-03T09:04:36;14.40;99.90
47604;DHT22;33326;51.116;6.900;2022-10-03T09:16:10;14.50;99.90
47604;DHT22;33326;51.116;6.900;2022-10-03T09:21:34;14.60;99.90
47604;DHT22;33326;51.116;6.900;2022-10-03T09:27:07;14.90;99.90
47604;DHT22;33326;51.116;6.900;2022-10-03T09:32:41;14.80;99.90
47604;DHT22;33326;51.116;6.900;2022-10-03T09:49:38;15.70;99.90
47604;DHT22;33326;51.116;6.900;2022-10-03T09:55:09;16.20;99.90
47604;DHT22;33326;51.116;6.900;2022-10-03T10:00:18;16.20;99.90
47604;DHT22;33326;51.116;6.900;2022-10-03T10:05:45;16.40;99.90
47604;DHT22;33326;51.116;6.900;2022-10-03T10:11:14;17.00;99.90
47604;DHT22;33326;51.116;6.900;2022-10-03T10:16:44;17.30;99.90
47604;DHT22;33326;51.116;6.900;2022-10-03T10:22:10;17.80;99.90
47604;DHT22;33326;51.116;6.900;2022-10-03T10:39:23;18.00;99.90
47604;DHT22;33326;51.116;6.900;2022-10-03T10:45:04;18.20;99.90
47604;DHT22;33326;51.116;6.900;2022-10-03T10:56:34;18.70;99.90
47604;DHT22;33326;51.116;6.900;2022-10-03T11:02:13;18.70;99.90
47604;DHT22;33326;51.116;6.900;2022-10-03T11:07:56;18.90;99.90
47604;DHT22;33326;51.116;6.900;2022-10-03T11:13:56;19.20;99.90
47604;DHT22;33326;51.116;6.900;2022-10-03T11:19:33;19.90;99.90
47604;DHT22;33326;51.116;6.900;2022-10-03T11:31:05;20.00;99.90
47604;DHT22;33326;51.116;6.900;2022-10-03T11:41:49;20.00;99.90
47604;DHT22;33326;51.116;6.900;2022-10-03T11:52:31;20.10;99.90
47604;DHT22;33326;51.116;6.900;2022-10-03T11:57:36;20.60;99.90
47604;DHT22;33326;51.116;6.900;2022-10-03T12:02:57;21.00;99.90
47604;DHT22;33326;51.116;6.900;2022-10-03T12:08:14;21.60;99.90
47604;DHT22;33326;51.116;6.900;2022-10-03T12:13:43;22.00;99.90
47604;DHT22;33326;51.116;6.900;2022-10-03T12:19:00;23.40;99.90
47604;DHT22;33326;51.116;6.900;2022-10-03T12:24:15;24.20;96.40
47604;DHT22;33326;51.116;6.900;2022-10-03T12:29:25;23.10;94.80
47604;DHT22;33326;51.116;6.900;2022-10-03T12:34:38;22.00;97.10
47604;DHT22;33326;51.116;6.900;2022-10-03T12:39:46;21.60;97.90
47604;DHT22;33326;51.116;6.900;2022-10-03T12:44:57;21.30;98.90
47604;DHT22;33326;51.116;6.900;2022-10-03T12:50:12;23.10;99.90
47604;DHT22;33326;51.116;6.900;2022-10-03T12:55:23;25.30;97.40
47604;DHT22;33326;51.116;6.900;2022-10-03T13:00:33;27.30;91.80
47604;DHT22;33326;51.116;6.900;2022-10-03T13:11:20;27.50;81.60
47604;DHT22;33326;51.116;6.900;2022-10-03T13:16:27;26.20;83.00
47604;DHT22;33326;51.116;6.900;2022-10-03T13:21:51;24.30;85.30
47604;DHT22;33326;51.116;6.900;2022-10-03T13:27:04;22.90;88.40
47604;DHT22;33326;51.116;6.900;2022-10-03T13:32:22;22.00;90.00
47604;DHT22;33326;51.116;6.900;2022-10-03T13:37:33;21.40;92.20
47604;DHT22;33326;51.116;6.900;2022-10-03T13:42:40;21.10;92.60
47604;DHT22;33326;51.116;6.900;2022-10-03T13:47:47;21.00;93.50
47604;DHT22;33326;51.116;6.900;2022-10-03T13:52:58;20.90;94.20
47604;DHT22;33326;51.116;6.900;2022-10-03T13:58:19;20.40;95.10
47604;DHT22;33326;51.116;6.900;2022-10-03T14:03:34;20.20;96.10
47604;DHT22;33326;51.116;6.900;2022-10-03T14:09:03;20.40;96.60
47604;DHT22;33326;51.116;6.900;2022-10-03T14:14:32;20.30;96.30
47604;DHT22;33326;51.116;6.900;2022-10-03T14:19:43;20.20;97.10
47604;DHT22;33326;51.116;6.900;2022-10-03T14:25:10;20.00;98.30
47604;DHT22;33326;51.116;6.900;2022-10-03T14:30:15;20.00;98.10
47604;DHT22;33326;51.116;6.900;2022-10-03T14:35:26;20.50;98.80
47604;DHT22;33326;51.116;6.900;2022-10-03T14:40:40;20.90;97.30
47604;DHT22;33326;51.116;6.900;2022-10-03T14:45:47;22.30;96.60
47604;DHT22;33326;51.116;6.900;2022-10-03T14:50:54;25.00;94.90
47604;DHT22;33326;51.116;6.900;2022-10-03T14:56:02;27.70;90.20
47604;DHT22;33326;51.116;6.900;2022-10-03T15:01:12;27.30;81.60
47604;DHT22;33326;51.116;6.900;2022-10-03T15:06:34;25.80;81.60
47604;DHT22;33326;51.116;6.900;2022-10-03T15:11:52;23.80;85.00
47604;DHT22;33326;51.116;6.900;2022-10-03T15:16:57;23.10;87.70
47604;DHT22;33326;51.116;6.900;2022-10-03T15:22:05;22.20;89.20
47604;DHT22;33326;51.116;6.900;2022-10-03T15:27:17;21.80;92.00
47604;DHT22;33326;51.116;6.900;2022-10-03T15:32:24;21.70;92.70
47604;DHT22;33326;51.116;6.900;2022-10-03T15:37:31;21.40;91.90
47604;DHT22;33326;51.116;6.900;2022-10-03T15:42:48;21.10;93.00
47604;DHT22;33326;51.116;6.900;2022-10-03T15:47:50;20.30;93.60
47604;DHT22;33326;51.116;6.900;2022-10-03T15:52:53;20.00;94.50
47604;DHT22;33326;51.116;6.900;2022-10-03T15:58:03;19.70;95.50
47604;DHT22;33326;51.116;6.900;2022-10-03T16:03:13;19.60;96.50
47604;DHT22;33326;51.116;6.900;2022-10-03T16:08:19;19.10;97.00
47604;DHT22;33326;51.116;6.900;2022-10-03T16:13:32;19.00;98.10
47604;DHT22;33326;51.116;6.900;2022-10-03T16:18:55;18.90;99.50
47604;DHT22;33326;51.116;6.900;2022-10-03T16:24:01;18.70;99.80
47604;DHT22;33326;51.116;6.900;2022-10-03T16:29:11;18.60;99.90
47604;DHT22;33326;51.116;6.900;2022-10-03T16:34:15;18.60;99.90
47604;DHT22;33326;51.116;6.900;2022-10-03T16:39:21;18.40;99.90
47604;DHT22;33326;51.116;6.900;2022-10-03T16:44:29;18.40;99.90
47604;DHT22;33326;51.116;6.900;2022-10-03T16:49:38;18.30;99.90
47604;DHT22;33326;51.116;6.900;2022-10-03T16:55:03;18.10;99.90
47604;DHT22;33326;51.116;6.900;2022-10-03T17:00:15;17.90;99.90
47604;DHT22;33326;51.116;6.900;2022-10-03T17:05:19;17.80;99.90
47604;DHT22;33326;51.116;6.900;2022-10-03T17:10:27;17.60;99.90
47604;DHT22;33326;51.116;6.900;2022-10-03T17:15:34;17.40;99.90
47604;DHT22;33326;51.116;6.900;2022-10-03T17:20:41;17.20;99.90
47604;DHT22;33326;51.116;6.900;2022-10-03T17:25:54;17.20;99.90
47604;DHT22;33326;51.116;6.900;2022-10-03T17:31:03;17.10;99.90
47604;DHT22;33326;51.116;6.900;2022-10-03T17:41:50;16.90;99.90
47604;DHT22;33326;51.116;6.900;2022-10-03T17:46:58;16.60;99.90
47604;DHT22;33326;51.116;6.900;2022-10-03T17:52:03;16.60;99.90
47604;DHT22;33326;51.116;6.900;2022-10-03T17:57:12;16.40;99.90
47604;DHT22;33326;51.116;6.900;2022-10-03T18:02:18;16.30;99.90
47604;DHT22;33326;51.116;6.900;2022-10-03T18:07:23;16.10;99.90
47604;DHT22;33326;51.116;6.900;2022-10-03T18:12:31;16.10;99.90
47604;DHT22;33326;51.116;6.900;2022-10-03T18:17:47;15.90;99.90
47604;DHT22;33326;51.116;6.900;2022-10-03T18:22:59;15.90;99.90
47604;DHT22;33326;51.116;6.900;2022-10-03T18:28:17;15.80;99.90
47604;DHT22;33326;51.116;6.900;2022-10-03T18:33:25;15.90;99.90
47604;DHT22;33326;51.116;6.900;2022-10-03T18:38:30;15.70;99.90
47604;DHT22;33326;51.116;6.900;2022-10-03T18:43:37;15.60;99.90
47604;DHT22;33326;51.116;6.900;2022-10-03T18:48:54;15.60;99.90
47604;DHT22;33326;51.116;6.900;2022-10-03T18:54:00;15.40;99.90
47604;DHT22;33326;51.116;6.900;2022-10-03T18:59:13;15.40;99.90
47604;DHT22;33326;51.116;6.900;2022-10-03T19:04:21;15.40;99.90
47604;DHT22;33326;51.116;6.900;2022-10-03T19:09:27;15.30;99.90
47604;DHT22;33326;51.116;6.900;2022-10-03T19:14:32;15.30;99.90
47604;DHT22;33326;51.116;6.900;2022-10-03T19:19:48;15.30;99.90
47604;DHT22;33326;51.116;6.900;2022-10-03T19:24:51;15.30;99.90
47604;DHT22;33326;51.116;6.900;2022-10-03T19:29:55;15.20;99.90
47604;DHT22;33326;51.116;6.900;2022-10-03T19:35:02;15.20;99.90
47604;DHT22;33326;51.116;6.900;2022-10-03T19:40:12;15.20;99.90
47604;DHT22;33326;51.116;6.900;2022-10-03T19:45:15;15.20;99.90
47604;DHT22;33326;51.116;6.900;2022-10-03T19:50:25;15.10;99.90
47604;DHT22;33326;51.116;6.900;2022-10-03T19:55:29;15.20;99.90
47604;DHT22;33326;51.116;6.900;2022-10-03T20:00:35;15.10;99.90
47604;DHT22;33326;51.116;6.900;2022-10-03T20:05:42;15.00;99.90
47604;DHT22;33326;51.116;6.900;2022-10-03T20:11:16;14.90;99.90
47604;DHT22;33326;51.116;6.900;2022-10-03T20:16:23;14.90;99.90
47604;DHT22;33326;51.116;6.900;2022-10-03T20:21:28;14.70;99.90
47604;DHT22;33326;51.116;6.900;2022-10-03T20:26:35;14.60;99.90
47604;DHT22;33326;51.116;6.900;2022-10-03T20:31:39;14.50;99.90
47604;DHT22;33326;51.116;6.900;2022-10-03T20:36:45;14.40;99.90
47604;DHT22;33326;51.116;6.900;2022-10-03T20:41:58;14.20;99.90
47604;DHT22;33326;51.116;6.900;2022-10-03T20:47:05;14.20;99.90
47604;DHT22;33326;51.116;6.900;2022-10-03T20:52:17;14.10;99.90
47604;DHT22;33326;51.116;6.900;2022-10-03T20:57:23;14.00;99.90
47604;DHT22;33326;51.116;6.900;2022-10-03T21:02:29;13.90;99.90
47604;DHT22;33326;51.116;6.900;2022-10-03T21:07:41;13.80;99.90
47604;DHT22;33326;51.116;6.900;2022-10-03T21:12:46;13.70;99.90
47604;DHT22;33326;51.116;6.900;2022-10-03T21:17:50;13.60;99.90
47604;DHT22;33326;51.116;6.900;2022-10-03T21:22:59;13.50;99.90
47604;DHT22;33326;51.116;6.900;2022-10-03T21:28:03;13.40;99.90
47604;DHT22;33326;51.116;6.900;2022-10-03T21:33:09;13.30;99.90
47604;DHT22;33326;51.116;6.900;2022-10-03T21:38:19;13.20;99.90
47604;DHT22;33326;51.116;6.900;2022-10-03T21:43:36;13.20;99.90
47604;DHT22;33326;51.116;6.900;2022-10-03T21:48:56;13.20;99.90
47604;DHT22;33326;51.116;6.900;2022-10-03T21:54:19;13.20;99.90
47604;DHT22;33326;51.116;6.900;2022-10-03T21:59:37;13.10;99.90
47604;DHT22;33326;51.116;6.900;2022-10-03T22:04:47;13.00;99.90
47604;DHT22;33326;51.116;6.900;2022-10-03T22:09:54;13.10;99.90
47604;DHT22;33326;51.116;6.900;2022-10-03T22:15:02;13.00;99.90
47604;DHT22;33326;51.116;6.900;2022-10-03T22:20:13;13.00;99.90
47604;DHT22;33326;51.116;6.900;2022-10-03T22:25:28;13.00;99.90
47604;DHT22;33326;51.116;6.900;2022-10-03T22:30:45;13.00;99.90
47604;DHT22;33326;51.116;6.900;2022-10-03T22:35:51;12.90;99.90
47604;DHT22;33326;51.116;6.900;2022-10-03T22:40:59;12.80;99.90
47604;DHT22;33326;51.116;6.900;2022-10-03T22:46:02;12.80;99.90
47604;DHT22;33326;51.116;6.900;2022-10-03T22:51:09;12.80;99.90
47604;DHT22;33326;51.116;6.900;2022-10-03T22:56:37;12.70;99.90
47604;DHT22;33326;51.116;6.900;2022-10-03T23:01:46;12.70;99.90
47604;DHT22;33326;51.116;6.900;2022-10-03T23:07:12;12.70;99.90
47604;DHT22;33326;51.116;6.900;2022-10-03T23:12:18;12.70;99.90
47604;DHT22;33326;51.116;6.900;2022-10-03T23:17:37;12.70;99.90
47604;DHT22;33326;51.116;6.900;2022-10-03T23:22:48;12.70;99.90
47604;DHT22;33326;51.116;6.900;2022-10-03T23:28:06;12.70;99.90
47604;DHT22;33326;51.116;6.900;2022-10-03T23:33:15;12.80;99.90
47604;DHT22;33326;51.116;6.900;2022-10-03T23:38:53;12.80;99.90
47604;DHT22;33326;51.116;6.900;2022-10-03T23:43:59;12.80;99.90
47604;DHT22;33326;51.116;6.900;2022-10-03T23:49:01;12.70;99.90
47604;DHT22;33326;51.116;6.900;2022-10-03T23:54:06;12.60;99.90
47604;DHT22;33326;51.116;6.900;2022-10-03T23:59:17;12.70;99.90
